createdAt,value
2019-01-20T00:00:52.747Z,41.70
2019-01-20T00:03:22.586Z,50.53
2019-01-20T00:05:52.545Z,46.83
2019-01-20T00:08:22.665Z,40.67
2019-01-20T00:10:52.531Z,44.43
2019-01-20T00:13:22.282Z,48.43
2019-01-20T00:15:52.227Z,46.60
2019-01-20T00:18:22.121Z,51.60
2019-01-20T00:20:52.170Z,48.43
2019-01-20T00:23:22.125Z,46.53
2019-01-20T00:25:52.848Z,41.13
2019-01-20T00:28:22.736Z,45.20
2019-01-20T00:30:54.194Z,49.53
2019-01-20T00:33:24.223Z,42.80
2019-01-20T00:35:56.051Z,46.07
2019-01-20T00:38:28.444Z,49.80
2019-01-20T00:40:59.810Z,54.00
2019-01-20T00:43:29.924Z,42.87
2019-01-20T00:46:00.763Z,48.17
2019-01-20T00:48:30.605Z,45.10
2019-01-20T00:51:00.326Z,47.03
2019-01-20T00:53:30.179Z,58.43
2019-01-20T00:56:00.058Z,44.27
2019-01-20T00:58:30.279Z,47.40
2019-01-20T01:01:03.232Z,54.53
2019-01-20T01:03:34.673Z,46.47
2019-01-20T01:06:04.494Z,52.03
2019-01-20T01:08:34.385Z,47.80
2019-01-20T01:11:04.929Z,60.60
2019-01-20T01:13:35.284Z,50.03
2019-01-20T01:16:05.360Z,51.80
2019-01-20T01:18:35.296Z,50.87
2019-01-20T01:21:05.589Z,50.97
2019-01-20T01:23:35.376Z,50.13
2019-01-20T01:26:05.546Z,52.43
2019-01-20T01:28:35.591Z,60.00
2019-01-20T01:31:14.193Z,49.93
2019-01-20T01:33:44.204Z,43.67
2019-01-20T01:36:13.962Z,51.33
2019-01-20T01:38:43.938Z,53.77
2019-01-20T01:41:15.383Z,56.43
2019-01-20T01:43:45.301Z,55.53
2019-01-20T01:46:15.361Z,51.40
2019-01-20T01:48:45.052Z,48.57
2019-01-20T01:51:15.559Z,46.10
2019-01-20T01:53:45.448Z,43.77
2019-01-20T01:56:17.589Z,56.03
2019-01-20T01:58:47.927Z,48.87
2019-01-20T02:01:18.025Z,49.57
2019-01-20T02:03:48.349Z,52.07
2019-01-20T02:06:18.644Z,50.33
2019-01-20T02:08:48.764Z,47.47
2019-01-20T02:11:19.253Z,46.10
2019-01-20T02:13:50.232Z,51.37
2019-01-20T02:16:20.695Z,56.20
2019-01-20T02:18:50.681Z,50.57
2019-01-20T02:21:20.978Z,55.30
2019-01-20T02:23:53.334Z,63.93
2019-01-20T02:26:24.124Z,58.47
2019-01-20T02:28:53.971Z,67.77
2019-01-20T02:31:23.830Z,57.00
2019-01-20T02:33:54.324Z,56.43
2019-01-20T02:36:24.287Z,43.70
2019-01-20T02:38:54.499Z,53.23
2019-01-20T02:41:24.215Z,59.73
2019-01-20T02:43:53.932Z,54.60
2019-01-20T02:46:23.566Z,52.00
2019-01-20T02:48:53.628Z,57.73
2019-01-20T02:51:24.135Z,55.53
2019-01-20T02:53:54.923Z,55.47
2019-01-20T02:56:25.161Z,57.70
2019-01-20T02:58:54.871Z,51.50
2019-01-20T03:01:25.214Z,65.17
2019-01-20T03:03:56.068Z,66.83
2019-01-20T03:06:26.427Z,51.37
2019-01-20T03:08:56.482Z,61.37
2019-01-20T03:11:26.422Z,55.67
2019-01-20T03:13:58.649Z,63.73
2019-01-20T03:16:29.136Z,62.80
2019-01-20T03:18:59.907Z,63.23
2019-01-20T03:21:31.303Z,63.80
2019-01-20T03:24:03.607Z,60.00
2019-01-20T03:26:33.667Z,54.97
2019-01-20T03:29:04.576Z,63.77
2019-01-20T03:31:36.428Z,61.87
2019-01-20T03:34:06.721Z,63.63
2019-01-20T03:36:36.960Z,59.87
2019-01-20T03:39:08.412Z,58.10
2019-01-20T03:41:41.530Z,60.23
2019-01-20T03:44:13.496Z,55.10
2019-01-20T03:46:44.126Z,56.17
2019-01-20T03:49:14.536Z,58.20
2019-01-20T03:51:44.933Z,54.73
2019-01-20T03:54:14.641Z,64.53
2019-01-20T03:56:47.011Z,60.80
2019-01-20T03:59:17.691Z,73.10
2019-01-20T04:01:47.810Z,58.67
2019-01-20T04:04:18.126Z,63.87
2019-01-20T04:06:48.154Z,57.73
2019-01-20T04:09:19.980Z,65.37
2019-01-20T04:11:51.827Z,60.90
2019-01-20T04:14:22.411Z,64.87
2019-01-20T04:16:52.852Z,64.63
2019-01-20T04:19:23.385Z,52.47
2019-01-20T04:21:54.352Z,54.73
2019-01-20T04:24:24.994Z,60.20
2019-01-20T04:26:55.512Z,61.70
2019-01-20T04:29:25.243Z,65.53
2019-01-20T04:31:55.550Z,53.43
2019-01-20T04:34:25.753Z,59.30
2019-01-20T04:36:56.047Z,55.27
2019-01-20T04:39:26.284Z,55.63
2019-01-20T04:41:56.577Z,51.00
2019-01-20T04:44:28.067Z,60.57
2019-01-20T04:46:58.868Z,59.67
2019-01-20T04:49:30.076Z,63.07
2019-01-20T04:52:01.556Z,68.50
2019-01-20T04:54:32.524Z,71.10
2019-01-20T04:57:02.785Z,73.03
2019-01-20T04:59:34.141Z,62.63
2019-01-20T05:02:05.262Z,53.40
2019-01-20T05:04:36.073Z,59.57
2019-01-20T05:07:06.953Z,59.00
2019-01-20T05:09:37.093Z,63.60
2019-01-20T05:12:07.341Z,60.20
2019-01-20T05:14:38.013Z,63.33
2019-01-20T05:17:08.333Z,65.93
2019-01-20T05:19:39.730Z,59.63
2019-01-20T05:22:10.097Z,59.40
2019-01-20T05:24:41.933Z,66.43
2019-01-20T05:27:11.730Z,60.53
2019-01-20T05:29:42.483Z,59.07
2019-01-20T05:32:12.311Z,62.10
2019-01-20T05:34:43.748Z,67.47
2019-01-20T05:37:13.899Z,64.90
2019-01-20T05:39:45.408Z,69.80
2019-01-20T05:42:17.325Z,66.37
2019-01-20T05:44:51.407Z,70.63
2019-01-20T05:47:22.401Z,61.57
2019-01-20T05:49:53.146Z,70.70
2019-01-20T05:52:25.871Z,58.07
2019-01-20T05:54:56.454Z,70.03
2019-01-20T05:57:26.716Z,64.63
2019-01-20T05:59:57.394Z,64.10
2019-01-20T06:02:29.700Z,65.37
2019-01-20T06:05:00.323Z,74.67
2019-01-20T06:07:32.085Z,67.57
2019-01-20T06:10:11.049Z,74.10
2019-01-20T06:12:41.726Z,64.03
2019-01-20T06:15:20.088Z,61.40
2019-01-20T06:17:50.301Z,64.37
2019-01-20T06:20:21.047Z,68.33
2019-01-20T06:22:52.827Z,67.77
2019-01-20T06:25:26.629Z,62.43
2019-01-20T06:27:58.488Z,64.10
2019-01-20T06:30:31.413Z,69.80
2019-01-20T06:33:02.464Z,75.27
2019-01-20T06:35:34.250Z,69.83
2019-01-20T06:38:04.506Z,69.63
2019-01-20T06:40:34.565Z,62.30
2019-01-20T06:43:04.833Z,62.60
2019-01-20T06:45:36.915Z,74.30
2019-01-20T06:48:09.372Z,68.87
2019-01-20T06:50:40.152Z,69.87
2019-01-20T06:53:09.787Z,70.73
2019-01-20T06:55:40.982Z,65.27
2019-01-20T06:58:10.853Z,65.80
2019-01-20T07:00:40.728Z,65.53
2019-01-20T07:03:13.081Z,69.07
2019-01-20T07:05:45.303Z,58.63
2019-01-20T07:08:15.298Z,64.97
2019-01-20T07:10:46.940Z,67.40
2019-01-20T07:13:16.600Z,66.23
2019-01-20T07:15:48.087Z,75.33
2019-01-20T07:18:17.626Z,62.23
2019-01-20T07:20:47.410Z,66.27
2019-01-20T07:23:17.003Z,63.47
2019-01-20T07:25:46.985Z,61.83
2019-01-20T07:28:18.774Z,63.53
2019-01-20T07:30:50.207Z,73.40
2019-01-20T07:33:22.345Z,70.23
2019-01-20T07:35:53.524Z,68.20
2019-01-20T07:38:24.246Z,69.60
2019-01-20T07:40:56.987Z,71.13
2019-01-20T07:43:29.201Z,73.97
2019-01-20T07:46:00.092Z,61.23
2019-01-20T07:48:30.740Z,72.70
2019-01-20T07:51:02.034Z,67.23
2019-01-20T07:53:33.639Z,57.53
2019-01-20T07:56:03.649Z,64.07
2019-01-20T07:58:35.245Z,68.57
2019-01-20T08:01:06.904Z,61.63
2019-01-20T08:03:38.394Z,66.57
2019-01-20T08:06:08.963Z,67.30
2019-01-20T08:08:40.445Z,67.73
2019-01-20T08:11:11.274Z,70.37
2019-01-20T08:13:42.520Z,69.33
2019-01-20T08:16:12.435Z,72.77
2019-01-20T08:18:43.217Z,75.30
2019-01-20T08:21:14.759Z,69.80
2019-01-20T08:23:45.019Z,77.77
2019-01-20T08:26:14.955Z,75.33
2019-01-20T08:28:45.111Z,76.70
2019-01-20T08:31:15.731Z,69.20
2019-01-20T08:33:45.420Z,71.10
2019-01-20T08:36:15.911Z,77.33
2019-01-20T08:38:47.974Z,64.67
2019-01-20T08:41:18.324Z,72.30
2019-01-20T08:43:49.701Z,71.00
2019-01-20T08:46:26.272Z,69.07
2019-01-20T08:48:56.727Z,64.80
2019-01-20T08:51:27.339Z,68.77
2019-01-20T08:53:57.035Z,74.90
2019-01-20T08:56:26.767Z,89.57
2019-01-20T08:58:57.018Z,80.40
2019-01-20T09:01:27.042Z,71.80
2019-01-20T09:03:57.094Z,72.97
2019-01-20T09:06:29.966Z,72.67
2019-01-20T09:08:59.580Z,76.67
2019-01-20T09:11:37.767Z,63.77
2019-01-20T09:14:08.374Z,60.37
2019-01-20T09:16:38.113Z,67.17
2019-01-20T09:19:08.151Z,78.10
2019-01-20T09:21:38.018Z,69.47
2019-01-20T09:24:09.580Z,69.53
2019-01-20T09:26:40.206Z,75.80
2019-01-20T09:29:10.097Z,74.87
2019-01-20T09:31:40.143Z,78.17
2019-01-20T09:34:10.148Z,78.37
2019-01-20T09:36:40.255Z,72.23
2019-01-20T09:39:11.627Z,78.20
2019-01-20T09:41:41.603Z,69.83
2019-01-20T09:44:11.430Z,75.93
2019-01-20T09:46:41.208Z,71.67
2019-01-20T09:49:13.574Z,65.43
2019-01-20T09:51:43.699Z,65.07
2019-01-20T09:54:13.630Z,71.73
2019-01-20T09:56:43.538Z,68.47
2019-01-20T09:59:13.894Z,67.63
2019-01-20T10:01:45.696Z,60.33
2019-01-20T10:04:15.624Z,65.60
2019-01-20T10:06:45.684Z,70.27
2019-01-20T10:09:15.467Z,67.60
2019-01-20T10:11:47.505Z,64.63
2019-01-20T10:14:18.077Z,60.63
2019-01-20T10:16:53.034Z,65.93
2019-01-20T10:19:23.437Z,68.13
2019-01-20T10:21:54.503Z,67.00
2019-01-20T10:24:24.893Z,64.60
2019-01-20T10:26:57.944Z,61.17
2019-01-20T10:29:30.916Z,58.93
2019-01-20T10:32:01.501Z,63.43
2019-01-20T10:34:32.347Z,63.17
2019-01-20T10:37:04.190Z,65.43
2019-01-20T10:39:34.159Z,64.10
2019-01-20T10:42:11.004Z,58.30
2019-01-20T10:44:41.779Z,58.60
2019-01-20T10:47:12.691Z,64.37
2019-01-20T10:49:45.976Z,62.73
2019-01-20T10:52:22.218Z,58.87
2019-01-20T10:55:12.415Z,57.93
2019-01-20T10:57:44.846Z,60.23
2019-01-20T11:00:29.582Z,62.77
2019-01-20T11:02:59.639Z,56.37
2019-01-20T11:05:31.637Z,64.43
2019-01-20T11:08:02.015Z,56.53
2019-01-20T11:10:32.072Z,60.70
2019-01-20T11:13:02.355Z,57.10
2019-01-20T11:15:32.134Z,55.83
2019-01-20T11:18:02.202Z,55.43
2019-01-20T11:20:32.542Z,56.37
2019-01-20T11:23:02.633Z,55.97
2019-01-20T11:25:35.612Z,60.80
2019-01-20T11:28:05.507Z,55.60
2019-01-20T11:30:35.382Z,57.80
2019-01-20T11:33:05.852Z,57.30
2019-01-20T11:35:35.788Z,52.00
2019-01-20T11:38:05.729Z,53.73
2019-01-20T11:40:35.698Z,48.80
2019-01-20T11:43:05.579Z,48.43
2019-01-20T11:45:35.338Z,52.93
2019-01-20T11:48:05.288Z,45.13
2019-01-20T11:50:36.087Z,48.30
2019-01-20T11:53:06.391Z,50.17
2019-01-20T11:55:36.311Z,50.63
2019-01-20T11:58:06.791Z,46.00
2019-01-20T12:00:36.874Z,47.43
2019-01-20T12:03:06.841Z,43.03
2019-01-20T12:05:36.884Z,49.63
2019-01-20T12:08:07.144Z,47.93
2019-01-20T12:10:37.027Z,48.83
2019-01-20T12:13:09.347Z,43.40
2019-01-20T12:15:39.312Z,45.97
2019-01-20T12:18:09.119Z,46.97
2019-01-20T12:20:38.999Z,49.30
2019-01-20T12:23:08.727Z,50.37
2019-01-20T12:25:38.365Z,44.60
2019-01-20T12:28:07.985Z,48.67
2019-01-20T12:30:40.196Z,47.13
2019-01-20T12:33:10.378Z,45.47
2019-01-20T12:35:40.812Z,49.37
2019-01-20T12:38:11.380Z,44.00
2019-01-20T12:40:43.664Z,46.03
2019-01-20T12:43:17.050Z,43.40
2019-01-20T12:45:47.042Z,45.63
2019-01-20T12:48:16.756Z,43.00
2019-01-20T12:50:46.768Z,43.63
2019-01-20T12:53:16.772Z,39.30
2019-01-20T12:55:47.094Z,45.30
2019-01-20T12:58:17.007Z,43.13
2019-01-20T13:00:46.832Z,143.80
2019-01-20T13:03:17.278Z,44.93
2019-01-20T13:05:48.820Z,41.00
2019-01-20T13:08:18.702Z,32.33
2019-01-20T13:10:48.585Z,39.00
2019-01-20T13:13:22.643Z,38.47
2019-01-20T13:15:54.061Z,43.70
2019-01-20T13:18:23.886Z,37.07
2019-01-20T13:20:54.360Z,30.90
2019-01-20T13:23:24.930Z,50.17
2019-01-20T13:25:55.619Z,38.63
2019-01-20T13:28:25.706Z,47.40
2019-01-20T13:30:58.094Z,35.13
2019-01-20T13:33:29.541Z,38.13
2019-01-20T13:36:07.036Z,37.53
2019-01-20T13:38:35.316Z,48.10
2019-01-20T13:41:06.913Z,42.13
2019-01-20T13:43:39.111Z,48.30
2019-01-20T13:46:11.178Z,45.03
2019-01-20T13:48:42.596Z,40.80
2019-01-20T13:51:13.555Z,36.80
2019-01-20T13:53:45.768Z,42.47
2019-01-20T13:56:21.122Z,52.53
2019-01-20T13:58:53.922Z,37.97
2019-01-20T14:01:24.223Z,42.13
2019-01-20T14:03:54.563Z,40.20
2019-01-20T14:06:26.941Z,38.97
2019-01-20T14:08:58.903Z,41.93
2019-01-20T14:11:29.536Z,45.50
2019-01-20T14:14:01.034Z,39.50
2019-01-20T14:16:32.215Z,41.67
2019-01-20T14:19:02.657Z,43.57
2019-01-20T14:21:35.626Z,40.23
2019-01-20T14:24:07.310Z,41.00
2019-01-20T14:26:38.597Z,39.60
2019-01-20T14:29:09.407Z,43.40
2019-01-20T14:31:39.720Z,40.00
2019-01-20T14:34:10.388Z,43.40
2019-01-20T14:36:41.294Z,35.00
2019-01-20T14:39:12.547Z,32.87
2019-01-20T14:41:43.960Z,37.83
2019-01-20T14:44:19.024Z,34.23
2019-01-20T14:46:52.072Z,33.40
2019-01-20T14:49:23.620Z,35.00
2019-01-20T14:51:54.354Z,32.87
2019-01-20T14:54:27.946Z,33.77
2019-01-20T14:56:59.531Z,34.63
2019-01-20T14:59:30.894Z,39.23
2019-01-20T15:02:00.937Z,33.00
2019-01-20T15:04:31.228Z,29.27
2019-01-20T15:07:01.405Z,35.47
2019-01-20T15:09:31.729Z,28.50
2019-01-20T15:12:05.338Z,30.13
2019-01-20T15:14:36.213Z,32.43
2019-01-20T15:17:09.063Z,27.10
2019-01-20T15:19:40.089Z,43.73
2019-01-20T15:22:11.424Z,34.50
2019-01-20T15:24:43.283Z,41.30
2019-01-20T15:27:15.251Z,36.40
2019-01-20T15:29:46.583Z,35.47
2019-01-20T15:32:19.685Z,39.40
2019-01-20T15:34:51.284Z,36.47
2019-01-20T15:37:22.624Z,29.37
2019-01-20T15:39:52.946Z,28.53
2019-01-20T15:42:23.557Z,32.10
2019-01-20T15:44:53.483Z,34.17
2019-01-20T15:47:24.533Z,27.60
2019-01-20T15:49:54.898Z,38.23
2019-01-20T15:52:25.410Z,40.60
2019-01-20T15:54:55.869Z,36.57
2019-01-20T15:57:26.307Z,42.57
2019-01-20T15:59:56.890Z,38.60
2019-01-20T16:02:26.962Z,50.73
2019-01-20T16:04:56.962Z,33.43
2019-01-20T16:07:26.986Z,33.27
2019-01-20T16:09:57.279Z,40.97
2019-01-20T16:12:27.539Z,50.83
2019-01-20T16:14:57.756Z,43.63
2019-01-20T16:17:28.066Z,37.33
2019-01-20T16:19:58.615Z,39.40
2019-01-20T16:22:29.415Z,43.27
2019-01-20T16:24:59.234Z,39.47
2019-01-20T16:27:29.578Z,42.00
2019-01-20T16:29:59.667Z,50.00
2019-01-20T16:32:29.593Z,38.20
2019-01-20T16:34:59.681Z,44.80
2019-01-20T16:37:29.819Z,50.17
2019-01-20T16:39:59.846Z,54.37
2019-01-20T16:42:29.829Z,51.07
2019-01-20T16:44:59.735Z,48.73
2019-01-20T16:47:29.556Z,52.77
2019-01-20T16:49:59.363Z,46.37
2019-01-20T16:52:29.331Z,48.50
2019-01-20T16:54:59.063Z,50.63
2019-01-20T16:57:28.868Z,46.63
2019-01-20T16:59:59.046Z,52.70
2019-01-20T17:02:29.448Z,46.03
2019-01-20T17:04:59.556Z,47.80
2019-01-20T17:07:29.621Z,41.97
2019-01-20T17:10:00.901Z,42.70
2019-01-20T17:12:30.864Z,46.47
2019-01-20T17:15:01.083Z,46.87
2019-01-20T17:17:31.053Z,43.67
2019-01-20T17:20:01.396Z,42.63
2019-01-20T17:22:31.472Z,43.80
2019-01-20T17:25:01.851Z,43.63
2019-01-20T17:27:32.356Z,37.13
2019-01-20T17:30:02.537Z,50.70
2019-01-20T17:32:32.404Z,48.27
2019-01-20T17:35:02.357Z,40.67
2019-01-20T17:37:32.225Z,46.50
2019-01-20T17:40:04.355Z,51.07
2019-01-20T17:42:34.674Z,45.40
2019-01-20T17:45:06.303Z,45.60
2019-01-20T17:47:36.730Z,49.37
2019-01-20T17:50:09.845Z,47.60
2019-01-20T17:52:39.819Z,49.97
2019-01-20T17:55:09.865Z,55.97
2019-01-20T17:57:39.658Z,68.07
2019-01-20T18:00:16.183Z,76.50
2019-01-20T18:02:46.227Z,64.00
2019-01-20T18:05:18.812Z,50.33
2019-01-20T18:07:48.941Z,62.33
2019-01-20T18:10:20.140Z,54.17
2019-01-20T18:12:50.190Z,54.47
2019-01-20T18:15:23.321Z,52.77
2019-01-20T18:17:53.518Z,57.33
2019-01-20T18:20:31.004Z,50.03
2019-01-20T18:23:00.751Z,51.87
2019-01-20T18:25:30.494Z,54.60
2019-01-20T18:28:03.678Z,60.20
2019-01-20T18:30:34.584Z,58.23
2019-01-20T18:33:04.415Z,52.50
2019-01-20T18:35:34.462Z,53.47
2019-01-20T18:38:04.364Z,62.10
2019-01-20T18:40:34.205Z,59.40
2019-01-20T18:43:04.947Z,55.97
2019-01-20T18:45:34.848Z,65.47
2019-01-20T18:48:04.870Z,66.73
2019-01-20T18:50:37.002Z,60.50
2019-01-20T18:53:07.065Z,62.33
2019-01-20T18:55:36.961Z,54.27
2019-01-20T18:58:07.205Z,63.00
2019-01-20T19:00:41.281Z,57.17
2019-01-20T19:03:11.139Z,62.63
2019-01-20T19:05:41.236Z,67.57
2019-01-20T19:08:11.528Z,57.60
2019-01-20T19:10:41.801Z,71.20
2019-01-20T19:13:13.394Z,66.17
2019-01-20T19:15:43.924Z,68.53
2019-01-20T19:18:19.072Z,64.23
2019-01-20T19:20:50.267Z,71.53
2019-01-20T19:23:20.432Z,65.63
2019-01-20T19:25:50.756Z,59.50
2019-01-20T19:28:22.576Z,63.40
2019-01-20T19:30:55.233Z,55.00
2019-01-20T19:33:27.780Z,51.23
2019-01-20T19:35:58.045Z,52.07
2019-01-20T19:38:28.025Z,55.43
2019-01-20T19:40:59.552Z,53.20
2019-01-20T19:43:39.926Z,56.97
2019-01-20T19:46:16.117Z,59.00
2019-01-20T19:48:46.450Z,50.90
2019-01-20T19:51:17.346Z,53.97
2019-01-20T19:53:50.610Z,57.97
2019-01-20T19:56:21.998Z,55.57
2019-01-20T19:58:55.567Z,69.27
2019-01-20T20:01:30.744Z,57.37
2019-01-20T20:03:57.897Z,59.57
2019-01-20T20:06:31.792Z,56.67
2019-01-20T20:09:03.593Z,48.70
2019-01-20T20:11:35.693Z,52.50
2019-01-20T20:14:05.727Z,54.03
2019-01-20T20:16:36.600Z,60.50
2019-01-20T20:19:06.344Z,58.80
2019-01-20T20:22:09.744Z,56.67
2019-01-20T20:24:40.882Z,52.90
2019-01-20T20:27:42.243Z,71.13
2019-01-20T20:34:10.952Z,52.73
2019-01-20T20:37:46.657Z,67.00
2019-01-20T20:40:21.170Z,80.37
2019-01-20T20:42:52.430Z,68.93
2019-01-20T20:45:26.885Z,65.60
2019-01-20T20:47:57.189Z,60.27
2019-01-20T20:50:27.304Z,62.43
2019-01-20T20:52:57.359Z,56.60
2019-01-20T20:55:27.212Z,55.63
2019-01-20T20:57:57.784Z,52.73
2019-01-20T21:00:34.502Z,60.93
2019-01-20T21:03:07.946Z,54.93
2019-01-20T21:05:37.849Z,49.43
2019-01-20T21:08:08.394Z,56.50
2019-01-20T21:10:38.529Z,58.57
2019-01-20T21:13:13.514Z,51.03
2019-01-20T21:15:43.490Z,57.40
2019-01-20T21:18:15.374Z,59.70
2019-01-20T21:20:45.453Z,55.80
2019-01-20T21:23:47.561Z,59.17
2019-01-20T21:26:27.262Z,59.67
2019-01-20T21:29:31.183Z,62.07
2019-01-20T21:32:06.610Z,54.33
2019-01-20T21:34:37.380Z,56.33
2019-01-20T21:37:07.884Z,55.30
2019-01-20T21:40:00.423Z,61.00
2019-01-20T21:42:42.485Z,64.33
2019-01-20T21:45:22.329Z,66.87
2019-01-20T21:47:52.567Z,64.70
2019-01-20T21:50:27.912Z,60.60
2019-01-20T21:52:59.362Z,60.50
2019-01-20T21:55:30.952Z,55.43
2019-01-20T21:58:03.235Z,66.10
2019-01-20T22:00:36.518Z,65.87
2019-01-20T22:03:07.049Z,61.20
2019-01-20T22:05:37.882Z,58.80
2019-01-20T22:08:08.512Z,59.97
2019-01-20T22:10:54.442Z,61.43
2019-01-20T22:13:29.991Z,54.00
2019-01-20T22:16:02.786Z,66.17
2019-01-20T22:18:34.069Z,58.83
2019-01-20T22:21:07.092Z,58.33
2019-01-20T22:23:37.450Z,61.77
2019-01-20T22:26:07.598Z,63.27
2019-01-20T22:28:37.725Z,64.00
2019-01-20T22:31:07.714Z,60.20
2019-01-20T22:33:37.609Z,65.60
2019-01-20T22:36:07.871Z,66.23
2019-01-20T22:39:01.243Z,58.37
2019-01-20T22:41:49.401Z,57.03
2019-01-20T22:44:22.400Z,56.10
2019-01-20T22:46:52.358Z,55.50
2019-01-20T22:49:22.181Z,51.97
2019-01-20T22:51:52.016Z,56.50
2019-01-20T22:54:22.767Z,58.47
2019-01-20T22:56:54.396Z,57.73
2019-01-20T22:59:26.963Z,52.60
2019-01-20T23:01:57.186Z,58.03
2019-01-20T23:04:28.161Z,58.30
2019-01-20T23:06:58.266Z,59.87
2019-01-20T23:09:30.852Z,55.63
2019-01-20T23:12:01.763Z,52.33
2019-01-20T23:14:31.706Z,51.83
2019-01-20T23:17:07.609Z,57.40
2019-01-20T23:19:33.220Z,50.17
2019-01-20T23:22:06.336Z,52.60
2019-01-20T23:24:37.026Z,56.37
2019-01-20T23:27:10.186Z,55.07
2019-01-20T23:29:40.444Z,60.00
2019-01-20T23:32:11.122Z,56.47
2019-01-20T23:34:41.176Z,47.47
2019-01-20T23:37:11.757Z,42.00
2019-01-20T23:39:42.290Z,53.57
2019-01-20T23:42:14.618Z,52.33
2019-01-20T23:44:44.808Z,48.20
2019-01-20T23:47:15.495Z,52.70
2019-01-20T23:49:45.462Z,50.73
2019-01-20T23:52:18.428Z,52.63
2019-01-20T23:54:48.522Z,56.27
2019-01-20T23:57:20.279Z,53.67
2019-01-20T23:59:50.390Z,55.33
